Iron Springs, Arizona
Current Conditions -  °F | °C
As of 12:53 PM on Tuesday 21 Oct 2014 (Local Time) from KPRC Reporting Station
Broken Clouds Broken Clouds  
Wind Chill: 73°   Ceiling: 6500
Heat Index: 73°   Visibility: 10mi
Dew Point: 41°   Wind: 8mph
Humidity: 31%   Direction: 140°SE
Pressure: 30.04"   Gusts: NA
Location:  34.58°N, 112.57°W
Report Text: KPRC 211953Z 14007KT 090V170 10SM BKN065 23/05 A3004 RMK AO2 SLP111 T02280050
Loading
Personal Weather Stations






























Interactive Weather Map
Tropical Storm Tracking
New forecast layout! Learn more

10-Day Weather Forecast

Advertisements
Track Severe Weather on mobile